sensor_id;sensor_type;location;lat;lon;timestamp;temperature;humidity
79187;SHT31;68762;51.980;5.646;2023-12-14T00:00:17;9.9;71.1
79187;SHT31;68762;51.980;5.646;2023-12-14T00:02:46;9.9;71.6
79187;SHT31;68762;51.980;5.646;2023-12-14T00:05:15;9.9;71.7
79187;SHT31;68762;51.980;5.646;2023-12-14T00:07:43;9.9;71.5
79187;SHT31;68762;51.980;5.646;2023-12-14T00:10:12;9.9;71.8
79187;SHT31;68762;51.980;5.646;2023-12-14T00:12:41;9.8;71.6
79187;SHT31;68762;51.980;5.646;2023-12-14T00:15:10;9.8;71.4
79187;SHT31;68762;51.980;5.646;2023-12-14T00:17:40;9.8;71.5
79187;SHT31;68762;51.980;5.646;2023-12-14T00:20:09;9.8;71.5
79187;SHT31;68762;51.980;5.646;2023-12-14T00:22:38;9.7;71.5
79187;SHT31;68762;51.980;5.646;2023-12-14T00:25:08;9.7;71.6
79187;SHT31;68762;51.980;5.646;2023-12-14T00:27:37;9.7;71.7
79187;SHT31;68762;51.980;5.646;2023-12-14T00:30:06;9.7;71.8
79187;SHT31;68762;51.980;5.646;2023-12-14T00:32:35;9.6;71.8
79187;SHT31;68762;51.980;5.646;2023-12-14T00:35:03;9.6;71.8
79187;SHT31;68762;51.980;5.646;2023-12-14T00:37:32;9.6;71.8
79187;SHT31;68762;51.980;5.646;2023-12-14T00:40:00;9.6;72.0
79187;SHT31;68762;51.980;5.646;2023-12-14T00:42:30;9.5;72.1
79187;SHT31;68762;51.980;5.646;2023-12-14T00:44:58;9.5;71.9
79187;SHT31;68762;51.980;5.646;2023-12-14T00:47:27;9.5;72.1
79187;SHT31;68762;51.980;5.646;2023-12-14T00:49:55;9.4;72.0
79187;SHT31;68762;51.980;5.646;2023-12-14T00:52:24;9.4;72.2
79187;SHT31;68762;51.980;5.646;2023-12-14T00:54:52;9.4;72.2
79187;SHT31;68762;51.980;5.646;2023-12-14T00:57:21;9.4;72.0
79187;SHT31;68762;51.980;5.646;2023-12-14T00:59:49;9.4;71.9
79187;SHT31;68762;51.980;5.646;2023-12-14T01:02:18;9.3;72.1
79187;SHT31;68762;51.980;5.646;2023-12-14T01:04:46;9.3;71.7
79187;SHT31;68762;51.980;5.646;2023-12-14T01:07:15;9.3;71.9
79187;SHT31;68762;51.980;5.646;2023-12-14T01:09:43;9.3;71.9
79187;SHT31;68762;51.980;5.646;2023-12-14T01:12:12;9.3;71.9
79187;SHT31;68762;51.980;5.646;2023-12-14T01:14:40;9.3;71.8
79187;SHT31;68762;51.980;5.646;2023-12-14T01:17:09;9.3;71.2
79187;SHT31;68762;51.980;5.646;2023-12-14T01:19:39;9.3;71.7
79187;SHT31;68762;51.980;5.646;2023-12-14T01:22:08;9.3;72.1
79187;SHT31;68762;51.980;5.646;2023-12-14T01:24:36;9.3;71.5
79187;SHT31;68762;51.980;5.646;2023-12-14T01:27:07;9.3;71.4
79187;SHT31;68762;51.980;5.646;2023-12-14T01:29:36;9.3;71.4
79187;SHT31;68762;51.980;5.646;2023-12-14T01:32:06;9.3;70.9
79187;SHT31;68762;51.980;5.646;2023-12-14T01:34:34;9.2;71.2
79187;SHT31;68762;51.980;5.646;2023-12-14T01:37:03;9.2;71.1
79187;SHT31;68762;51.980;5.646;2023-12-14T01:39:32;9.2;71.5
79187;SHT31;68762;51.980;5.646;2023-12-14T01:42:02;9.2;71.1
79187;SHT31;68762;51.980;5.646;2023-12-14T01:44:31;9.2;71.4
79187;SHT31;68762;51.980;5.646;2023-12-14T01:46:59;9.2;71.1
79187;SHT31;68762;51.980;5.646;2023-12-14T01:49:28;9.1;71.5
79187;SHT31;68762;51.980;5.646;2023-12-14T01:51:56;9.1;71.0
79187;SHT31;68762;51.980;5.646;2023-12-14T01:54:25;9.1;71.1
79187;SHT31;68762;51.980;5.646;2023-12-14T01:56:53;9.1;71.4
79187;SHT31;68762;51.980;5.646;2023-12-14T01:59:22;9.1;71.4
79187;SHT31;68762;51.980;5.646;2023-12-14T02:01:55;9.1;71.7
79187;SHT31;68762;51.980;5.646;2023-12-14T02:04:26;9.1;71.5
79187;SHT31;68762;51.980;5.646;2023-12-14T02:06:55;9.1;71.5
79187;SHT31;68762;51.980;5.646;2023-12-14T02:09:23;9.1;71.2
79187;SHT31;68762;51.980;5.646;2023-12-14T02:11:52;9.1;71.3
79187;SHT31;68762;51.980;5.646;2023-12-14T02:14:23;9.1;71.4
79187;SHT31;68762;51.980;5.646;2023-12-14T02:16:53;9.1;70.7
79187;SHT31;68762;51.980;5.646;2023-12-14T02:19:21;9.1;70.7
79187;SHT31;68762;51.980;5.646;2023-12-14T02:21:50;9.1;70.9
79187;SHT31;68762;51.980;5.646;2023-12-14T02:24:18;9.1;70.6
79187;SHT31;68762;51.980;5.646;2023-12-14T02:26:47;9.1;70.9
79187;SHT31;68762;51.980;5.646;2023-12-14T02:29:15;9.1;70.8
79187;SHT31;68762;51.980;5.646;2023-12-14T02:31:44;9.0;71.0
79187;SHT31;68762;51.980;5.646;2023-12-14T02:34:15;9.0;70.8
79187;SHT31;68762;51.980;5.646;2023-12-14T02:36:43;9.0;70.9
79187;SHT31;68762;51.980;5.646;2023-12-14T02:39:11;9.0;70.8
79187;SHT31;68762;51.980;5.646;2023-12-14T02:41:40;9.1;70.4
79187;SHT31;68762;51.980;5.646;2023-12-14T02:44:09;9.1;70.7
79187;SHT31;68762;51.980;5.646;2023-12-14T02:46:37;9.1;70.4
79187;SHT31;68762;51.980;5.646;2023-12-14T02:49:06;9.1;70.4
79187;SHT31;68762;51.980;5.646;2023-12-14T02:51:34;9.1;70.6
79187;SHT31;68762;51.980;5.646;2023-12-14T02:54:03;9.1;70.6
79187;SHT31;68762;51.980;5.646;2023-12-14T02:56:31;9.1;70.6
79187;SHT31;68762;51.980;5.646;2023-12-14T02:58:59;9.1;70.1
79187;SHT31;68762;51.980;5.646;2023-12-14T03:01:30;9.1;70.7
79187;SHT31;68762;51.980;5.646;2023-12-14T03:03:58;9.1;70.9
79187;SHT31;68762;51.980;5.646;2023-12-14T03:06:27;9.1;71.2
79187;SHT31;68762;51.980;5.646;2023-12-14T03:08:56;9.1;71.2
79187;SHT31;68762;51.980;5.646;2023-12-14T03:11:24;9.1;70.8
79187;SHT31;68762;51.980;5.646;2023-12-14T03:13:53;9.1;70.8
79187;SHT31;68762;51.980;5.646;2023-12-14T03:16:21;9.1;70.7
79187;SHT31;68762;51.980;5.646;2023-12-14T03:18:50;9.1;70.9
79187;SHT31;68762;51.980;5.646;2023-12-14T03:21:19;9.1;71.2
79187;SHT31;68762;51.980;5.646;2023-12-14T03:23:48;9.1;70.8
79187;SHT31;68762;51.980;5.646;2023-12-14T03:26:17;9.1;70.7
79187;SHT31;68762;51.980;5.646;2023-12-14T03:28:45;9.1;70.9
79187;SHT31;68762;51.980;5.646;2023-12-14T03:31:14;9.1;70.8
79187;SHT31;68762;51.980;5.646;2023-12-14T03:33:45;9.1;70.9
79187;SHT31;68762;51.980;5.646;2023-12-14T03:36:14;9.1;71.0
79187;SHT31;68762;51.980;5.646;2023-12-14T03:38:42;9.1;70.9
79187;SHT31;68762;51.980;5.646;2023-12-14T03:41:11;9.1;70.7
79187;SHT31;68762;51.980;5.646;2023-12-14T03:43:39;9.1;70.9
79187;SHT31;68762;51.980;5.646;2023-12-14T03:46:10;9.1;70.6
79187;SHT31;68762;51.980;5.646;2023-12-14T03:48:38;9.1;70.4
79187;SHT31;68762;51.980;5.646;2023-12-14T03:51:07;9.1;70.2
79187;SHT31;68762;51.980;5.646;2023-12-14T03:53:36;9.1;70.1
79187;SHT31;68762;51.980;5.646;2023-12-14T03:56:05;9.1;70.7
79187;SHT31;68762;51.980;5.646;2023-12-14T03:58:33;9.1;70.7
79187;SHT31;68762;51.980;5.646;2023-12-14T04:01:02;9.1;70.9
79187;SHT31;68762;51.980;5.646;2023-12-14T04:03:30;9.1;70.9
79187;SHT31;68762;51.980;5.646;2023-12-14T04:05:59;9.1;70.5
79187;SHT31;68762;51.980;5.646;2023-12-14T04:08:28;9.1;70.4
79187;SHT31;68762;51.980;5.646;2023-12-14T04:10:56;9.1;70.5
79187;SHT31;68762;51.980;5.646;2023-12-14T04:13:25;9.1;70.0
79187;SHT31;68762;51.980;5.646;2023-12-14T04:15:54;9.1;69.8
79187;SHT31;68762;51.980;5.646;2023-12-14T04:18:23;9.1;70.1
79187;SHT31;68762;51.980;5.646;2023-12-14T04:20:51;9.1;70.3
79187;SHT31;68762;51.980;5.646;2023-12-14T04:23:20;9.1;70.2
79187;SHT31;68762;51.980;5.646;2023-12-14T04:25:50;9.1;69.3
79187;SHT31;68762;51.980;5.646;2023-12-14T04:28:18;9.1;69.4
79187;SHT31;68762;51.980;5.646;2023-12-14T04:30:49;9.1;69.4
79187;SHT31;68762;51.980;5.646;2023-12-14T04:33:17;9.1;69.4
79187;SHT31;68762;51.980;5.646;2023-12-14T04:35:47;9.0;69.9
79187;SHT31;68762;51.980;5.646;2023-12-14T04:38:15;9.0;69.8
79187;SHT31;68762;51.980;5.646;2023-12-14T04:40:44;9.0;69.7
79187;SHT31;68762;51.980;5.646;2023-12-14T04:43:13;9.0;69.7
79187;SHT31;68762;51.980;5.646;2023-12-14T04:45:41;9.0;68.7
79187;SHT31;68762;51.980;5.646;2023-12-14T04:48:10;9.0;69.4
79187;SHT31;68762;51.980;5.646;2023-12-14T04:50:39;9.0;68.9
79187;SHT31;68762;51.980;5.646;2023-12-14T04:53:07;9.0;69.0
79187;SHT31;68762;51.980;5.646;2023-12-14T04:55:36;9.0;69.1
79187;SHT31;68762;51.980;5.646;2023-12-14T04:58:04;9.0;69.9
79187;SHT31;68762;51.980;5.646;2023-12-14T05:00:34;9.0;69.8
79187;SHT31;68762;51.980;5.646;2023-12-14T05:03:02;9.0;69.2
79187;SHT31;68762;51.980;5.646;2023-12-14T05:05:31;9.0;69.3
79187;SHT31;68762;51.980;5.646;2023-12-14T05:08:00;9.0;69.5
79187;SHT31;68762;51.980;5.646;2023-12-14T05:10:28;9.0;69.6
79187;SHT31;68762;51.980;5.646;2023-12-14T05:12:57;9.0;69.2
79187;SHT31;68762;51.980;5.646;2023-12-14T05:15:25;9.0;68.8
79187;SHT31;68762;51.980;5.646;2023-12-14T05:17:54;9.0;69.2
79187;SHT31;68762;51.980;5.646;2023-12-14T05:20:23;9.0;68.8
79187;SHT31;68762;51.980;5.646;2023-12-14T05:22:51;9.0;68.6
79187;SHT31;68762;51.980;5.646;2023-12-14T05:25:20;8.9;69.3
79187;SHT31;68762;51.980;5.646;2023-12-14T05:27:48;8.9;69.7
79187;SHT31;68762;51.980;5.646;2023-12-14T05:30:17;8.9;69.3
79187;SHT31;68762;51.980;5.646;2023-12-14T05:32:46;8.9;69.5
79187;SHT31;68762;51.980;5.646;2023-12-14T05:35:17;8.9;69.6
79187;SHT31;68762;51.980;5.646;2023-12-14T05:37:47;8.9;69.7
79187;SHT31;68762;51.980;5.646;2023-12-14T05:40:17;9.0;68.8
79187;SHT31;68762;51.980;5.646;2023-12-14T05:42:46;9.0;68.6
79187;SHT31;68762;51.980;5.646;2023-12-14T05:45:16;9.0;69.0
79187;SHT31;68762;51.980;5.646;2023-12-14T05:47:46;9.0;69.0
79187;SHT31;68762;51.980;5.646;2023-12-14T05:50:16;9.0;69.1
79187;SHT31;68762;51.980;5.646;2023-12-14T05:52:46;9.0;69.3
79187;SHT31;68762;51.980;5.646;2023-12-14T05:55:15;9.0;69.1
79187;SHT31;68762;51.980;5.646;2023-12-14T05:57:47;9.0;69.1
79187;SHT31;68762;51.980;5.646;2023-12-14T06:00:18;9.0;69.2
79187;SHT31;68762;51.980;5.646;2023-12-14T06:02:46;9.0;68.8
79187;SHT31;68762;51.980;5.646;2023-12-14T06:05:15;9.0;69.0
79187;SHT31;68762;51.980;5.646;2023-12-14T06:07:44;9.0;68.8
79187;SHT31;68762;51.980;5.646;2023-12-14T06:10:12;9.0;69.3
79187;SHT31;68762;51.980;5.646;2023-12-14T06:12:41;9.0;69.3
79187;SHT31;68762;51.980;5.646;2023-12-14T06:15:10;9.0;69.1
79187;SHT31;68762;51.980;5.646;2023-12-14T06:17:39;9.0;68.8
79187;SHT31;68762;51.980;5.646;2023-12-14T06:20:09;9.0;68.9
79187;SHT31;68762;51.980;5.646;2023-12-14T06:22:39;9.0;68.6
79187;SHT31;68762;51.980;5.646;2023-12-14T06:25:08;9.0;68.6
79187;SHT31;68762;51.980;5.646;2023-12-14T06:27:37;9.0;68.3
79187;SHT31;68762;51.980;5.646;2023-12-14T06:30:06;8.9;68.6
79187;SHT31;68762;51.980;5.646;2023-12-14T06:32:36;8.9;68.8
79187;SHT31;68762;51.980;5.646;2023-12-14T06:35:05;8.9;68.7
79187;SHT31;68762;51.980;5.646;2023-12-14T06:37:33;8.9;68.4
79187;SHT31;68762;51.980;5.646;2023-12-14T06:40:02;8.9;68.1
79187;SHT31;68762;51.980;5.646;2023-12-14T06:42:32;8.9;68.4
79187;SHT31;68762;51.980;5.646;2023-12-14T06:45:02;8.9;68.3
79187;SHT31;68762;51.980;5.646;2023-12-14T06:47:31;8.9;68.5
79187;SHT31;68762;51.980;5.646;2023-12-14T06:50:00;8.9;68.2
79187;SHT31;68762;51.980;5.646;2023-12-14T06:52:29;8.9;68.5
79187;SHT31;68762;51.980;5.646;2023-12-14T06:54:57;8.9;67.9
79187;SHT31;68762;51.980;5.646;2023-12-14T06:57:26;8.9;67.2
79187;SHT31;68762;51.980;5.646;2023-12-14T06:59:55;8.9;67.3
79187;SHT31;68762;51.980;5.646;2023-12-14T07:02:24;8.8;66.6
79187;SHT31;68762;51.980;5.646;2023-12-14T07:04:52;8.8;66.7
79187;SHT31;68762;51.980;5.646;2023-12-14T07:07:21;8.8;66.3
79187;SHT31;68762;51.980;5.646;2023-12-14T07:09:49;8.8;66.4
79187;SHT31;68762;51.980;5.646;2023-12-14T07:12:18;8.8;66.9
79187;SHT31;68762;51.980;5.646;2023-12-14T07:14:46;8.8;67.8
79187;SHT31;68762;51.980;5.646;2023-12-14T07:17:15;8.8;68.1
79187;SHT31;68762;51.980;5.646;2023-12-14T07:19:43;8.8;67.6
79187;SHT31;68762;51.980;5.646;2023-12-14T07:22:12;8.8;67.3
79187;SHT31;68762;51.980;5.646;2023-12-14T07:24:40;8.7;66.9
79187;SHT31;68762;51.980;5.646;2023-12-14T07:27:09;8.7;67.4
79187;SHT31;68762;51.980;5.646;2023-12-14T07:29:37;8.7;67.8
79187;SHT31;68762;51.980;5.646;2023-12-14T07:32:07;8.7;67.7
79187;SHT31;68762;51.980;5.646;2023-12-14T07:34:35;8.7;67.6
79187;SHT31;68762;51.980;5.646;2023-12-14T07:37:04;8.7;67.2
79187;SHT31;68762;51.980;5.646;2023-12-14T07:39:32;8.7;67.7
79187;SHT31;68762;51.980;5.646;2023-12-14T07:42:01;8.7;66.7
79187;SHT31;68762;51.980;5.646;2023-12-14T07:44:31;8.7;66.7
79187;SHT31;68762;51.980;5.646;2023-12-14T07:47:02;8.7;66.8
79187;SHT31;68762;51.980;5.646;2023-12-14T07:49:30;8.7;66.7
79187;SHT31;68762;51.980;5.646;2023-12-14T07:51:59;8.7;66.9
79187;SHT31;68762;51.980;5.646;2023-12-14T07:54:29;8.7;66.4
79187;SHT31;68762;51.980;5.646;2023-12-14T07:56:58;8.7;66.4
79187;SHT31;68762;51.980;5.646;2023-12-14T07:59:28;8.6;66.6
79187;SHT31;68762;51.980;5.646;2023-12-14T08:01:57;8.6;67.0
79187;SHT31;68762;51.980;5.646;2023-12-14T08:04:26;8.6;67.1
79187;SHT31;68762;51.980;5.646;2023-12-14T08:06:54;8.6;67.4
79187;SHT31;68762;51.980;5.646;2023-12-14T08:09:23;8.6;66.6
79187;SHT31;68762;51.980;5.646;2023-12-14T08:11:51;8.6;67.0
79187;SHT31;68762;51.980;5.646;2023-12-14T08:14:20;8.6;66.8
79187;SHT31;68762;51.980;5.646;2023-12-14T08:16:49;8.6;67.0
79187;SHT31;68762;51.980;5.646;2023-12-14T08:19:17;8.6;66.8
79187;SHT31;68762;51.980;5.646;2023-12-14T08:21:46;8.6;66.2
79187;SHT31;68762;51.980;5.646;2023-12-14T08:24:14;8.6;66.1
79187;SHT31;68762;51.980;5.646;2023-12-14T08:26:43;8.6;66.0
79187;SHT31;68762;51.980;5.646;2023-12-14T08:29:11;8.6;66.6
79187;SHT31;68762;51.980;5.646;2023-12-14T08:31:40;8.6;65.3
79187;SHT31;68762;51.980;5.646;2023-12-14T08:34:08;8.6;66.2
79187;SHT31;68762;51.980;5.646;2023-12-14T08:36:37;8.6;66.1
79187;SHT31;68762;51.980;5.646;2023-12-14T08:39:06;8.6;65.9
79187;SHT31;68762;51.980;5.646;2023-12-14T08:41:34;8.6;65.2
79187;SHT31;68762;51.980;5.646;2023-12-14T08:44:03;8.6;65.9
79187;SHT31;68762;51.980;5.646;2023-12-14T08:46:40;8.6;66.2
79187;SHT31;68762;51.980;5.646;2023-12-14T08:49:10;8.6;66.2
79187;SHT31;68762;51.980;5.646;2023-12-14T08:51:39;8.6;65.2
79187;SHT31;68762;51.980;5.646;2023-12-14T08:54:08;8.6;66.2
79187;SHT31;68762;51.980;5.646;2023-12-14T08:56:37;8.6;65.3
79187;SHT31;68762;51.980;5.646;2023-12-14T08:59:06;8.5;65.1
79187;SHT31;68762;51.980;5.646;2023-12-14T09:01:35;8.5;65.4
79187;SHT31;68762;51.980;5.646;2023-12-14T09:04:04;8.5;65.4
79187;SHT31;68762;51.980;5.646;2023-12-14T09:06:32;8.5;65.4
79187;SHT31;68762;51.980;5.646;2023-12-14T09:09:03;8.5;65.2
79187;SHT31;68762;51.980;5.646;2023-12-14T09:11:31;8.5;65.4
79187;SHT31;68762;51.980;5.646;2023-12-14T09:14:02;8.5;66.5
79187;SHT31;68762;51.980;5.646;2023-12-14T09:16:31;8.5;66.2
79187;SHT31;68762;51.980;5.646;2023-12-14T09:18:59;8.5;66.8
79187;SHT31;68762;51.980;5.646;2023-12-14T09:21:28;8.5;66.2
79187;SHT31;68762;51.980;5.646;2023-12-14T09:23:56;8.5;66.1
79187;SHT31;68762;51.980;5.646;2023-12-14T09:26:25;8.5;66.4
79187;SHT31;68762;51.980;5.646;2023-12-14T09:28:53;8.5;66.4
79187;SHT31;68762;51.980;5.646;2023-12-14T09:31:22;8.5;66.4
79187;SHT31;68762;51.980;5.646;2023-12-14T09:33:51;8.6;67.1
79187;SHT31;68762;51.980;5.646;2023-12-14T09:36:20;8.6;65.7
79187;SHT31;68762;51.980;5.646;2023-12-14T09:38:49;8.6;66.4
79187;SHT31;68762;51.980;5.646;2023-12-14T09:41:17;8.6;66.6
79187;SHT31;68762;51.980;5.646;2023-12-14T09:43:47;8.6;65.6
79187;SHT31;68762;51.980;5.646;2023-12-14T09:46:17;8.6;66.7
79187;SHT31;68762;51.980;5.646;2023-12-14T09:48:47;8.6;66.1
79187;SHT31;68762;51.980;5.646;2023-12-14T09:51:19;8.7;64.9
79187;SHT31;68762;51.980;5.646;2023-12-14T09:53:50;8.7;65.8
79187;SHT31;68762;51.980;5.646;2023-12-14T09:56:24;8.7;66.0
79187;SHT31;68762;51.980;5.646;2023-12-14T09:58:53;8.7;66.5
79187;SHT31;68762;51.980;5.646;2023-12-14T10:01:24;8.7;65.7
79187;SHT31;68762;51.980;5.646;2023-12-14T10:04:08;8.7;65.1
79187;SHT31;68762;51.980;5.646;2023-12-14T10:06:38;8.7;65.6
79187;SHT31;68762;51.980;5.646;2023-12-14T10:09:08;8.7;65.2
79187;SHT31;68762;51.980;5.646;2023-12-14T10:11:40;8.7;65.3
79187;SHT31;68762;51.980;5.646;2023-12-14T10:14:23;8.7;64.6
79187;SHT31;68762;51.980;5.646;2023-12-14T10:16:53;8.7;64.3
79187;SHT31;68762;51.980;5.646;2023-12-14T10:19:22;8.7;65.7
79187;SHT31;68762;51.980;5.646;2023-12-14T10:21:51;8.7;65.1
79187;SHT31;68762;51.980;5.646;2023-12-14T10:24:21;8.7;64.7
79187;SHT31;68762;51.980;5.646;2023-12-14T10:26:50;8.7;64.4
79187;SHT31;68762;51.980;5.646;2023-12-14T10:29:20;8.7;64.1
79187;SHT31;68762;51.980;5.646;2023-12-14T10:31:49;8.7;64.9
79187;SHT31;68762;51.980;5.646;2023-12-14T10:34:17;8.7;65.8
79187;SHT31;68762;51.980;5.646;2023-12-14T10:36:46;8.7;66.2
79187;SHT31;68762;51.980;5.646;2023-12-14T10:39:15;8.7;67.1
79187;SHT31;68762;51.980;5.646;2023-12-14T10:41:47;8.8;65.4
79187;SHT31;68762;51.980;5.646;2023-12-14T10:44:19;8.8;65.7
79187;SHT31;68762;51.980;5.646;2023-12-14T10:46:51;8.8;64.5
79187;SHT31;68762;51.980;5.646;2023-12-14T10:49:23;8.8;65.2
79187;SHT31;68762;51.980;5.646;2023-12-14T10:51:54;8.8;65.0
79187;SHT31;68762;51.980;5.646;2023-12-14T10:54:24;8.8;65.4
79187;SHT31;68762;51.980;5.646;2023-12-14T10:56:56;8.9;64.9
79187;SHT31;68762;51.980;5.646;2023-12-14T10:59:25;8.9;65.3
79187;SHT31;68762;51.980;5.646;2023-12-14T11:01:54;8.9;65.3
79187;SHT31;68762;51.980;5.646;2023-12-14T11:04:24;8.9;65.1
79187;SHT31;68762;51.980;5.646;2023-12-14T11:06:54;8.9;65.9
79187;SHT31;68762;51.980;5.646;2023-12-14T11:09:23;8.9;64.6
79187;SHT31;68762;51.980;5.646;2023-12-14T11:11:57;8.9;64.1
79187;SHT31;68762;51.980;5.646;2023-12-14T11:14:27;8.9;64.3
79187;SHT31;68762;51.980;5.646;2023-12-14T11:16:57;9.0;63.4
79187;SHT31;68762;51.980;5.646;2023-12-14T11:19:33;9.0;64.0
79187;SHT31;68762;51.980;5.646;2023-12-14T11:22:27;9.0;63.3
79187;SHT31;68762;51.980;5.646;2023-12-14T11:24:56;9.0;64.6
79187;SHT31;68762;51.980;5.646;2023-12-14T11:27:29;9.0;65.6
79187;SHT31;68762;51.980;5.646;2023-12-14T11:29:58;9.0;64.5
79187;SHT31;68762;51.980;5.646;2023-12-14T11:32:27;9.1;63.1
79187;SHT31;68762;51.980;5.646;2023-12-14T11:34:57;9.1;65.9
79187;SHT31;68762;51.980;5.646;2023-12-14T11:37:25;9.1;65.2
79187;SHT31;68762;51.980;5.646;2023-12-14T11:39:54;9.1;65.5
79187;SHT31;68762;51.980;5.646;2023-12-14T11:42:25;9.1;64.5
79187;SHT31;68762;51.980;5.646;2023-12-14T11:44:58;9.1;64.9
79187;SHT31;68762;51.980;5.646;2023-12-14T11:47:26;9.2;64.3
79187;SHT31;68762;51.980;5.646;2023-12-14T11:49:55;9.2;63.8
79187;SHT31;68762;51.980;5.646;2023-12-14T11:52:23;9.2;64.6
79187;SHT31;68762;51.980;5.646;2023-12-14T11:54:52;9.2;64.4
79187;SHT31;68762;51.980;5.646;2023-12-14T11:57:21;9.3;64.6
79187;SHT31;68762;51.980;5.646;2023-12-14T11:59:50;9.3;63.6
79187;SHT31;68762;51.980;5.646;2023-12-14T12:02:26;9.4;63.1
79187;SHT31;68762;51.980;5.646;2023-12-14T12:04:55;9.4;64.0
79187;SHT31;68762;51.980;5.646;2023-12-14T12:07:23;9.5;63.5
79187;SHT31;68762;51.980;5.646;2023-12-14T12:09:52;9.5;64.0
79187;SHT31;68762;51.980;5.646;2023-12-14T12:12:21;9.6;62.4
79187;SHT31;68762;51.980;5.646;2023-12-14T12:14:51;9.7;63.0
79187;SHT31;68762;51.980;5.646;2023-12-14T12:17:20;9.9;62.8
79187;SHT31;68762;51.980;5.646;2023-12-14T12:19:49;10.1;62.7
79187;SHT31;68762;51.980;5.646;2023-12-14T12:22:17;10.3;59.8
79187;SHT31;68762;51.980;5.646;2023-12-14T12:24:46;10.4;60.0
79187;SHT31;68762;51.980;5.646;2023-12-14T12:27:14;10.5;58.2
79187;SHT31;68762;51.980;5.646;2023-12-14T12:29:43;10.6;57.8
79187;SHT31;68762;51.980;5.646;2023-12-14T12:32:11;10.6;59.2
79187;SHT31;68762;51.980;5.646;2023-12-14T12:34:40;10.7;60.1
79187;SHT31;68762;51.980;5.646;2023-12-14T12:37:09;10.7;59.3
79187;SHT31;68762;51.980;5.646;2023-12-14T12:39:39;10.7;58.9
79187;SHT31;68762;51.980;5.646;2023-12-14T12:42:08;10.7;58.3
79187;SHT31;68762;51.980;5.646;2023-12-14T12:44:36;10.7;58.9
79187;SHT31;68762;51.980;5.646;2023-12-14T12:47:05;10.6;59.2
79187;SHT31;68762;51.980;5.646;2023-12-14T12:49:36;10.6;58.8
79187;SHT31;68762;51.980;5.646;2023-12-14T12:52:05;10.6;58.9
79187;SHT31;68762;51.980;5.646;2023-12-14T12:54:33;10.6;60.2
79187;SHT31;68762;51.980;5.646;2023-12-14T12:57:02;10.5;60.6
79187;SHT31;68762;51.980;5.646;2023-12-14T12:59:31;10.5;58.3
79187;SHT31;68762;51.980;5.646;2023-12-14T13:02:00;10.5;58.3
79187;SHT31;68762;51.980;5.646;2023-12-14T13:04:29;10.4;57.5
79187;SHT31;68762;51.980;5.646;2023-12-14T13:06:58;10.4;58.7
79187;SHT31;68762;51.980;5.646;2023-12-14T13:09:28;10.3;58.2
79187;SHT31;68762;51.980;5.646;2023-12-14T13:11:57;10.3;58.9
79187;SHT31;68762;51.980;5.646;2023-12-14T13:14:25;10.3;58.6
79187;SHT31;68762;51.980;5.646;2023-12-14T13:16:54;10.2;58.8
79187;SHT31;68762;51.980;5.646;2023-12-14T13:19:25;10.2;59.0
79187;SHT31;68762;51.980;5.646;2023-12-14T13:21:55;10.2;59.5
79187;SHT31;68762;51.980;5.646;2023-12-14T13:24:26;10.2;60.2
79187;SHT31;68762;51.980;5.646;2023-12-14T13:26:54;10.2;60.5
79187;SHT31;68762;51.980;5.646;2023-12-14T13:29:23;10.1;60.1
79187;SHT31;68762;51.980;5.646;2023-12-14T13:31:51;10.1;60.3
79187;SHT31;68762;51.980;5.646;2023-12-14T13:34:20;10.1;60.2
79187;SHT31;68762;51.980;5.646;2023-12-14T13:36:48;10.1;59.9
79187;SHT31;68762;51.980;5.646;2023-12-14T13:39:17;10.1;59.6
79187;SHT31;68762;51.980;5.646;2023-12-14T13:41:46;10.1;59.3
79187;SHT31;68762;51.980;5.646;2023-12-14T13:44:14;10.0;59.9
79187;SHT31;68762;51.980;5.646;2023-12-14T13:46:43;10.0;60.2
79187;SHT31;68762;51.980;5.646;2023-12-14T13:49:12;10.0;60.5
79187;SHT31;68762;51.980;5.646;2023-12-14T13:51:40;9.9;61.0
79187;SHT31;68762;51.980;5.646;2023-12-14T13:54:09;9.9;61.0
79187;SHT31;68762;51.980;5.646;2023-12-14T13:56:38;9.8;60.8
79187;SHT31;68762;51.980;5.646;2023-12-14T13:59:06;9.8;61.3
79187;SHT31;68762;51.980;5.646;2023-12-14T14:01:35;9.8;61.7
79187;SHT31;68762;51.980;5.646;2023-12-14T14:04:04;9.8;62.4
79187;SHT31;68762;51.980;5.646;2023-12-14T14:06:32;9.8;61.9
79187;SHT31;68762;51.980;5.646;2023-12-14T14:09:01;9.9;61.3
79187;SHT31;68762;51.980;5.646;2023-12-14T14:11:30;9.9;61.4
79187;SHT31;68762;51.980;5.646;2023-12-14T14:13:58;9.9;61.9
79187;SHT31;68762;51.980;5.646;2023-12-14T14:16:27;9.9;61.4
79187;SHT31;68762;51.980;5.646;2023-12-14T14:18:56;9.9;61.2
79187;SHT31;68762;51.980;5.646;2023-12-14T14:21:25;9.9;61.1
79187;SHT31;68762;51.980;5.646;2023-12-14T14:23:53;9.9;61.7
79187;SHT31;68762;51.980;5.646;2023-12-14T14:26:22;9.9;61.8
79187;SHT31;68762;51.980;5.646;2023-12-14T14:28:50;9.9;62.6
79187;SHT31;68762;51.980;5.646;2023-12-14T14:31:21;9.9;62.1
79187;SHT31;68762;51.980;5.646;2023-12-14T14:33:49;9.8;62.0
79187;SHT31;68762;51.980;5.646;2023-12-14T14:36:18;9.8;61.9
79187;SHT31;68762;51.980;5.646;2023-12-14T14:38:48;9.8;62.1
79187;SHT31;68762;51.980;5.646;2023-12-14T14:41:18;9.8;62.2
79187;SHT31;68762;51.980;5.646;2023-12-14T14:43:47;9.7;61.9
79187;SHT31;68762;51.980;5.646;2023-12-14T14:46:15;9.7;62.0
79187;SHT31;68762;51.980;5.646;2023-12-14T14:48:44;9.7;62.1
79187;SHT31;68762;51.980;5.646;2023-12-14T14:51:13;9.7;62.2
79187;SHT31;68762;51.980;5.646;2023-12-14T14:53:42;9.7;62.3
79187;SHT31;68762;51.980;5.646;2023-12-14T14:56:11;9.7;62.6
79187;SHT31;68762;51.980;5.646;2023-12-14T14:58:39;9.7;62.6
79187;SHT31;68762;51.980;5.646;2023-12-14T15:01:12;9.7;62.7
79187;SHT31;68762;51.980;5.646;2023-12-14T15:03:41;9.6;63.5
79187;SHT31;68762;51.980;5.646;2023-12-14T15:06:09;9.6;63.5
79187;SHT31;68762;51.980;5.646;2023-12-14T15:08:38;9.6;63.1
79187;SHT31;68762;51.980;5.646;2023-12-14T15:11:08;9.6;63.0
79187;SHT31;68762;51.980;5.646;2023-12-14T15:13:37;9.6;62.7
79187;SHT31;68762;51.980;5.646;2023-12-14T15:16:08;9.6;62.9
79187;SHT31;68762;51.980;5.646;2023-12-14T15:18:38;9.5;63.0
79187;SHT31;68762;51.980;5.646;2023-12-14T15:21:08;9.5;63.0
79187;SHT31;68762;51.980;5.646;2023-12-14T15:23:36;9.5;63.3
79187;SHT31;68762;51.980;5.646;2023-12-14T15:26:05;9.5;63.5
79187;SHT31;68762;51.980;5.646;2023-12-14T15:28:34;9.5;63.6
79187;SHT31;68762;51.980;5.646;2023-12-14T15:31:03;9.5;63.5
79187;SHT31;68762;51.980;5.646;2023-12-14T15:33:32;9.5;63.8
79187;SHT31;68762;51.980;5.646;2023-12-14T15:36:00;9.4;64.9
79187;SHT31;68762;51.980;5.646;2023-12-14T15:38:29;9.4;64.3
79187;SHT31;68762;51.980;5.646;2023-12-14T15:40:57;9.4;64.4
79187;SHT31;68762;51.980;5.646;2023-12-14T15:43:26;9.4;64.4
79187;SHT31;68762;51.980;5.646;2023-12-14T15:45:54;9.4;64.4
79187;SHT31;68762;51.980;5.646;2023-12-14T15:48:23;9.4;64.2
79187;SHT31;68762;51.980;5.646;2023-12-14T15:50:52;9.4;64.5
79187;SHT31;68762;51.980;5.646;2023-12-14T15:53:20;9.4;64.1
79187;SHT31;68762;51.980;5.646;2023-12-14T15:55:49;9.4;64.1
79187;SHT31;68762;51.980;5.646;2023-12-14T15:58:18;9.4;64.2
79187;SHT31;68762;51.980;5.646;2023-12-14T16:00:46;9.4;64.3
79187;SHT31;68762;51.980;5.646;2023-12-14T16:03:15;9.4;64.6
79187;SHT31;68762;51.980;5.646;2023-12-14T16:05:44;9.4;64.4
79187;SHT31;68762;51.980;5.646;2023-12-14T16:08:13;9.4;64.3
79187;SHT31;68762;51.980;5.646;2023-12-14T16:10:42;9.4;64.8
79187;SHT31;68762;51.980;5.646;2023-12-14T16:13:14;9.4;64.9
79187;SHT31;68762;51.980;5.646;2023-12-14T16:15:42;9.4;66.0
79187;SHT31;68762;51.980;5.646;2023-12-14T16:18:11;9.4;65.7
79187;SHT31;68762;51.980;5.646;2023-12-14T16:20:40;9.4;64.9
79187;SHT31;68762;51.980;5.646;2023-12-14T16:23:08;9.5;64.5
79187;SHT31;68762;51.980;5.646;2023-12-14T16:25:37;9.5;64.3
79187;SHT31;68762;51.980;5.646;2023-12-14T16:28:05;9.5;64.3